Time;durP1;ratioP1;P1;durP2;ratioP2;P2;SDS_P1;SDS_P2;PMS_P1;PMS_P2;Temp;Humidity;BMP_temperature;BMP_pressure;BME280_temperature;BME280_humidity;BME280_pressure;Samples;Min_cycle;Max_cycle;Signal;HPM_P1;HPM_P2
2023/06/25 00:02:25;;;;;;;4.23;2.90;;;;;;;21.38;56.61;96991.50;10381345;28;20045;-33
2023/06/25 00:07:26;;;;;;;2.13;1.93;;;;;;;21.35;56.39;96977.94;10385547;28;20517;-32
2023/06/25 00:12:26;;;;;;;2.40;2.20;;;;;;;21.23;56.71;96978.88;10353128;28;20046;-32
2023/06/25 00:17:27;;;;;;;2.40;2.20;;;;;;;21.13;56.76;96977.25;10370257;28;20030;-32
2023/06/25 00:22:27;;;;;;;2.20;2.00;;;;;;;21.09;56.95;96970.50;10384143;28;20299;-32
2023/06/25 00:27:28;;;;;;;2.90;2.10;;;;;;;21.05;56.96;96968.81;10375962;28;20400;-32
2023/06/25 00:32:28;;;;;;;2.30;2.10;;;;;;;21.04;57.30;96967.13;10364041;28;20029;-33
2023/06/25 00:37:29;;;;;;;2.47;1.88;;;;;;;21.03;57.04;96962.91;10371393;28;20761;-33
2023/06/25 00:42:42;;;;;;;2.78;2.45;;;;;;;21.23;56.67;96957.66;10371211;28;20116;-32
2023/06/25 00:47:43;;;;;;;3.65;2.78;;;;;;;21.38;56.38;96958.41;10367281;28;20025;-33
2023/06/25 00:52:43;;;;;;;2.35;2.15;;;;;;;21.31;56.51;96946.56;10373516;28;20405;-33
2023/06/25 00:57:44;;;;;;;3.30;2.30;;;;;;;21.19;56.58;96941.56;10348994;28;20029;-32
2023/06/25 01:02:51;;;;;;;3.65;2.22;;;;;;;21.10;56.89;96941.63;10387958;28;20287;-32
2023/06/25 01:07:57;;;;;;;2.28;2.08;;;;;;;21.09;56.97;96947.59;10387422;28;20034;-32
2023/06/25 01:12:58;;;;;;;2.27;2.07;;;;;;;21.06;57.13;96945.03;10359566;28;20504;-33
2023/06/25 01:17:59;;;;;;;3.30;1.92;;;;;;;21.04;56.94;96936.56;10374011;28;20358;-32
2023/06/25 01:22:59;;;;;;;2.17;1.98;;;;;;;21.03;56.92;96929.78;10369580;28;20046;-32
2023/06/25 01:27:59;;;;;;;2.08;1.88;;;;;;;21.28;56.55;96918.56;10356414;28;20036;-32
2023/06/25 01:33:00;;;;;;;2.70;2.03;;;;;;;21.36;55.99;96909.19;10358145;28;20577;-32
2023/06/25 01:38:00;;;;;;;2.17;1.98;;;;;;;21.27;56.49;96914.34;10364183;28;20038;-32
2023/06/25 01:43:01;;;;;;;2.27;2.07;;;;;;;21.16;56.61;96921.22;10352706;28;20042;-32
2023/06/25 01:48:01;;;;;;;3.10;1.67;;;;;;;21.10;56.95;96918.72;10362953;28;20029;-33
2023/06/25 01:53:02;;;;;;;2.25;2.05;;;;;;;21.06;56.88;96909.41;10348055;28;20545;-32
2023/06/25 01:58:02;;;;;;;2.27;2.03;;;;;;;21.05;56.94;96910.25;10378865;28;20030;-32
2023/06/25 02:03:03;;;;;;;1.98;1.80;;;;;;;21.03;56.78;96908.56;10356673;28;20037;-33
2023/06/25 02:08:04;;;;;;;2.17;1.80;;;;;;;21.09;56.82;96908.53;10351443;28;20084;-32
2023/06/25 02:13:04;;;;;;;2.58;2.38;;;;;;;21.30;56.19;96899.03;10374060;28;20401;-32
2023/06/25 02:18:04;;;;;;;2.23;2.03;;;;;;;21.35;55.95;96889.66;10374717;28;20065;-32
2023/06/25 02:23:05;;;;;;;2.90;2.63;;;;;;;21.24;56.53;96877.88;10370000;28;20111;-33
2023/06/25 02:28:05;;;;;;;2.03;1.90;;;;;;;21.13;56.49;96893.22;10364089;28;20284;-32
2023/06/25 02:33:05;;;;;;;2.00;1.90;;;;;;;21.09;56.55;96883.06;10373347;28;20029;-32
2023/06/25 02:38:06;;;;;;;2.53;2.10;;;;;;;21.04;56.87;96870.38;10375699;28;20041;-32
2023/06/25 02:43:06;;;;;;;2.00;1.60;;;;;;;21.03;56.77;96878.88;10366535;28;20129;-32
2023/06/25 02:48:07;;;;;;;2.03;1.83;;;;;;;21.02;56.67;96882.28;10378648;28;20312;-33
2023/06/25 02:53:07;;;;;;;2.40;2.00;;;;;;;21.09;56.76;96872.88;10380961;28;20367;-32
2023/06/25 02:58:09;;;;;;;2.70;2.50;;;;;;;21.32;56.04;96871.00;10380748;28;20030;-32
2023/06/25 03:03:10;;;;;;;2.40;2.17;;;;;;;21.33;55.52;96878.66;10385648;28;20033;-33
2023/06/25 03:08:11;;;;;;;2.40;1.75;;;;;;;21.23;56.27;96879.56;10375277;28;20167;-33
2023/06/25 03:13:11;;;;;;;2.30;2.10;;;;;;;21.14;56.46;96882.19;10388692;28;20044;-33
2023/06/25 03:18:12;;;;;;;2.00;1.80;;;;;;;21.09;56.52;96894.13;10361289;28;20052;-32
2023/06/25 03:23:12;;;;;;;2.00;1.77;;;;;;;21.06;56.78;96891.56;10376417;28;20103;-32
2023/06/25 03:28:14;;;;;;;2.28;1.80;;;;;;;21.03;56.74;96896.69;10363503;28;20652;-32
2023/06/25 03:33:14;;;;;;;1.67;1.58;;;;;;;21.02;56.81;96881.44;10384828;28;20037;-33
2023/06/25 03:38:17;;;;;;;2.60;2.00;;;;;;;21.13;56.48;96874.56;10363349;28;20038;-32
2023/06/25 03:43:17;;;;;;;3.05;2.20;;;;;;;21.35;55.74;96871.84;10352822;28;20527;-32
2023/06/25 03:48:18;;;;;;;1.97;1.77;;;;;;;21.34;55.57;96865.06;10376867;28;20105;-32
2023/06/25 03:53:18;;;;;;;2.05;1.90;;;;;;;21.21;55.92;96860.91;10370904;28;20339;-32
2023/06/25 03:58:19;;;;;;;1.60;1.50;;;;;;;21.13;56.56;96862.66;10349878;28;20025;-33
2023/06/25 04:03:20;;;;;;;2.20;2.00;;;;;;;21.05;56.50;96859.34;10349504;28;20452;-33
2023/06/25 04:08:20;;;;;;;1.70;1.60;;;;;;;21.04;56.57;96855.09;10338609;28;20296;-32
2023/06/25 04:13:21;;;;;;;1.90;1.77;;;;;;;21.03;56.55;96858.50;10359293;28;20128;-33
2023/06/25 04:18:21;;;;;;;1.70;1.60;;;;;;;20.98;56.63;96839.06;10360217;28;20095;-32
2023/06/25 04:23:22;;;;;;;2.07;1.87;;;;;;;21.12;56.29;96837.22;10368440;28;20041;-30
2023/06/25 04:28:23;;;;;;;2.72;2.53;;;;;;;21.33;55.55;96843.00;10342050;28;20037;-30
2023/06/25 04:33:23;;;;;;;2.53;2.13;;;;;;;21.33;55.62;96853.19;10359992;28;20041;-31
2023/06/25 04:38:24;;;;;;;2.78;2.25;;;;;;;21.23;55.72;96850.72;10365207;28;20295;-30
2023/06/25 04:43:24;;;;;;;2.23;2.03;;;;;;;21.15;56.30;96848.22;10335897;28;20041;-30
2023/06/25 04:48:26;;;;;;;2.00;1.80;;;;;;;21.10;56.08;96849.97;10359058;28;20292;-30
2023/06/25 04:53:27;;;;;;;2.23;1.80;;;;;;;21.07;56.26;96851.69;10368216;28;20038;-30
2023/06/25 04:58:27;;;;;;;2.13;1.93;;;;;;;21.03;56.44;96853.41;10347715;28;20033;-30
2023/06/25 05:03:27;;;;;;;3.90;3.50;;;;;;;21.15;54.39;96853.31;10340612;28;20655;-30
2023/06/25 05:08:28;;;;;;;4.20;3.78;;;;;;;20.94;53.62;96863.69;10351055;28;20413;-29
2023/06/25 05:13:29;;;;;;;3.97;3.63;;;;;;;20.97;53.88;96857.72;10357715;28;20138;-30
2023/06/25 05:18:30;;;;;;;6.22;3.72;;;;;;;20.88;54.39;96848.44;10341410;28;20045;-30
2023/06/25 05:23:38;;;;;;;4.43;3.38;;;;;;;20.88;54.08;96850.16;10341199;28;20418;-29
2023/06/25 05:28:39;;;;;;;4.72;3.45;;;;;;;20.88;54.08;96858.63;10335802;28;20518;-30
2023/06/25 05:33:39;;;;;;;3.80;3.50;;;;;;;20.89;54.19;96842.50;10360171;28;20026;-30
2023/06/25 05:38:39;;;;;;;6.13;4.23;;;;;;;20.92;53.82;96842.50;10346152;28;20034;-30
2023/06/25 05:43:40;;;;;;;4.72;3.70;;;;;;;20.94;54.28;96842.47;10358444;28;20026;-29
2023/06/25 05:48:41;;;;;;;5.47;4.00;;;;;;;20.94;54.24;96833.13;10364560;28;20025;-30
2023/06/25 05:53:43;;;;;;;14.20;3.97;;;;;;;21.09;52.93;96839.78;10364714;28;20044;-31
2023/06/25 05:58:43;;;;;;;8.82;4.25;;;;;;;21.20;52.86;96845.63;10375109;28;20034;-29
2023/06/25 06:03:44;;;;;;;4.80;3.43;;;;;;;21.27;53.31;96842.19;10363190;28;20037;-30
2023/06/25 06:08:44;;;;;;;6.27;3.00;;;;;;;21.20;54.08;96850.72;10380453;28;20108;-31
2023/06/25 06:13:44;;;;;;;5.07;2.72;;;;;;;21.14;54.41;96845.72;10381715;28;20041;-30
2023/06/25 06:18:45;;;;;;;3.73;3.20;;;;;;;21.10;54.77;96844.88;10374317;28;20037;-30
2023/06/25 06:23:45;;;;;;;5.20;2.80;;;;;;;21.07;55.25;96846.59;10373391;28;20037;-30
2023/06/25 06:28:46;;;;;;;4.35;2.65;;;;;;;21.05;55.20;96844.06;10374713;28;20295;-29
2023/06/25 06:33:46;;;;;;;3.28;2.97;;;;;;;21.02;55.26;96841.56;10379521;28;20832;-30
2023/06/25 06:38:47;;;;;;;3.30;2.90;;;;;;;21.04;55.28;96834.75;10350917;28;20639;-29
2023/06/25 06:43:47;;;;;;;3.20;2.90;;;;;;;21.24;54.66;96835.41;10352044;28;20277;-30
2023/06/25 06:48:47;;;;;;;5.47;3.30;;;;;;;21.31;54.28;96837.03;10351560;28;20030;-29
2023/06/25 06:53:48;;;;;;;2.93;2.63;;;;;;;21.20;54.73;96831.22;10335207;28;20300;-29
2023/06/25 06:58:48;;;;;;;4.50;3.23;;;;;;;21.18;54.79;96842.25;10335859;28;20454;-30
2023/06/25 07:03:48;;;;;;;3.60;3.07;;;;;;;21.14;55.19;96846.53;10364265;28;20029;-30
2023/06/25 07:08:49;;;;;;;3.60;3.10;;;;;;;21.11;55.26;96846.56;10365230;28;20040;-29
2023/06/25 07:13:50;;;;;;;4.30;3.30;;;;;;;21.09;55.53;96843.19;10375496;28;20029;-29
2023/06/25 07:18:50;;;;;;;4.15;3.67;;;;;;;21.08;54.11;96844.06;10388314;28;20039;-30
2023/06/25 07:23:50;;;;;;;4.37;3.43;;;;;;;21.09;55.24;96842.34;10372890;28;20037;-30
2023/06/25 07:28:51;;;;;;;5.40;3.00;;;;;;;21.22;54.35;96839.69;10358832;28;20034;-30
2023/06/25 07:33:51;;;;;;;5.40;2.90;;;;;;;21.35;53.92;96835.31;10346924;28;20038;-30
2023/06/25 07:38:58;;;;;;;2.87;2.67;;;;;;;21.30;54.33;96840.44;10362539;28;20609;-29
2023/06/25 07:43:58;;;;;;;3.70;3.03;;;;;;;21.20;54.50;96831.22;10386330;28;20045;-30
2023/06/25 07:48:59;;;;;;;3.60;3.13;;;;;;;21.16;54.89;96838.91;10376568;28;20472;-30
2023/06/25 07:53:59;;;;;;;5.07;2.80;;;;;;;21.10;55.21;96832.16;10385342;28;20288;-30
2023/06/25 07:58:59;;;;;;;3.50;2.93;;;;;;;21.12;55.42;96832.97;10380864;28;20038;-30
2023/06/25 08:04:00;;;;;;;4.60;3.23;;;;;;;21.08;55.56;96836.44;10373078;28;20963;-30
2023/06/25 08:09:00;;;;;;;3.90;2.90;;;;;;;21.07;55.47;96834.72;10376677;28;20042;-30
2023/06/25 08:14:00;;;;;;;3.17;2.87;;;;;;;21.18;55.11;96827.84;10387439;28;20045;-30
2023/06/25 08:19:01;;;;;;;3.23;2.93;;;;;;;21.35;54.69;96825.13;10346181;28;20042;-30
2023/06/25 08:24:01;;;;;;;3.20;2.90;;;;;;;21.34;54.61;96829.41;10379775;28;20042;-30
2023/06/25 08:29:04;;;;;;;10.02;3.53;;;;;;;21.22;54.87;96828.66;10368751;28;20042;-29
2023/06/25 08:34:04;;;;;;;6.18;3.10;;;;;;;21.20;55.21;96821.03;10348887;28;20038;-33
2023/06/25 08:39:04;;;;;;;9.47;3.57;;;;;;;21.18;55.41;96822.75;10344988;28;20034;-30
2023/06/25 08:44:05;;;;;;;7.13;3.60;;;;;;;21.16;55.54;96819.38;10372494;28;20037;-30
2023/06/25 08:49:05;;;;;;;7.47;4.30;;;;;;;21.18;55.36;96824.44;10369578;28;20379;-30
2023/06/25 08:54:07;;;;;;;9.30;3.55;;;;;;;21.15;55.59;96817.66;10365183;28;20455;-30
2023/06/25 08:59:07;;;;;;;8.07;3.80;;;;;;;21.19;54.55;96810.84;10386707;28;20084;-30
2023/06/25 09:04:07;;;;;;;5.93;4.03;;;;;;;21.38;54.79;96804.75;10376750;28;20436;-30
2023/06/25 09:09:11;;;;;;;9.77;3.80;;;;;;;21.40;54.78;96798.75;10378936;28;20333;-30
2023/06/25 09:14:14;;;;;;;9.30;3.50;;;;;;;21.14;55.65;96802.44;10370884;28;20081;-30
2023/06/25 09:19:21;;;;;;;6.63;3.65;;;;;;;21.18;55.51;96787.09;10386083;28;20468;-30
2023/06/25 09:24:22;;;;;;;5.10;3.35;;;;;;;21.17;55.78;96799.84;10374236;28;20045;-30
2023/06/25 09:29:22;;;;;;;5.68;3.60;;;;;;;21.15;55.92;96802.38;10360308;28;20497;-30
2023/06/25 09:34:23;;;;;;;6.72;3.80;;;;;;;21.13;55.73;96788.84;10381391;28;20029;-30
2023/06/25 09:39:23;;;;;;;8.40;3.50;;;;;;;21.11;55.98;96780.38;10349468;28;20037;-30
2023/06/25 09:44:24;;;;;;;7.37;2.97;;;;;;;21.09;56.16;96777.00;10366037;28;20072;-31
2023/06/25 09:49:28;;;;;;;4.90;2.92;;;;;;;21.34;55.48;96783.53;10366279;28;20284;-30
2023/06/25 09:54:30;;;;;;;4.43;3.92;;;;;;;21.43;55.29;96777.50;10375617;28;20037;-30
2023/06/25 09:59:30;;;;;;;8.90;3.30;;;;;;;21.35;55.85;96780.13;10351971;28;20145;-30
2023/06/25 10:04:32;;;;;;;4.05;2.97;;;;;;;21.25;55.80;96773.47;10371912;28;20040;-31
2023/06/25 10:09:32;;;;;;;4.32;2.90;;;;;;;21.21;55.95;96771.78;10381220;28;20025;-30
2023/06/25 10:14:38;;;;;;;4.80;2.95;;;;;;;21.17;56.05;96770.16;10383175;28;20045;-30
2023/06/25 10:19:38;;;;;;;4.15;3.05;;;;;;;21.17;56.01;96775.22;10367917;28;20046;-29
2023/06/25 10:24:41;;;;;;;4.13;2.87;;;;;;;21.15;56.24;96776.94;10373478;28;20473;-30
2023/06/25 10:29:42;;;;;;;6.05;3.13;;;;;;;21.12;56.36;96769.31;10359278;28;20031;-29
2023/06/25 10:34:42;;;;;;;6.65;3.40;;;;;;;21.28;56.19;96775.97;10360661;28;20548;-38
2023/06/25 10:39:43;;;;;;;4.28;3.20;;;;;;;21.46;56.28;96778.31;10382680;28;20041;-30
2023/06/25 10:44:43;;;;;;;4.73;3.40;;;;;;;21.41;56.10;96763.94;10374598;28;20219;-30
2023/06/25 10:49:44;;;;;;;4.77;2.60;;;;;;;21.31;56.05;96760.63;10393832;28;20288;-30
2023/06/25 10:54:44;;;;;;;3.80;3.33;;;;;;;21.26;56.29;96761.56;10381485;28;20109;-29
2023/06/25 10:59:45;;;;;;;4.27;3.20;;;;;;;21.20;56.21;96757.38;10388496;28;20091;-30
2023/06/25 11:04:52;;;;;;;5.88;2.83;;;;;;;21.15;56.43;96756.56;10397436;28;20663;-30
2023/06/25 11:09:57;;;;;;;5.95;3.00;;;;;;;21.13;56.93;96744.72;10372099;28;20029;-30
2023/06/25 11:14:58;;;;;;;4.78;3.53;;;;;;;21.12;56.86;96741.31;10373181;28;20484;-29
2023/06/25 11:19:58;;;;;;;7.13;3.00;;;;;;;21.20;57.32;96736.13;10369982;28;20034;-30
2023/06/25 11:24:59;;;;;;;3.95;3.38;;;;;;;21.40;56.86;96731.69;10396586;28;20041;-30
2023/06/25 11:30:04;;;;;;;3.65;3.13;;;;;;;21.45;56.37;96730.78;10371334;28;20058;-30
2023/06/25 11:35:14;;;;;;;3.20;2.72;;;;;;;21.32;56.49;96729.22;10372448;28;20053;-30
2023/06/25 11:40:23;;;;;;;3.45;2.78;;;;;;;21.24;56.85;96725.91;10392931;28;20026;-30
2023/06/25 11:45:24;;;;;;;5.15;2.63;;;;;;;21.19;57.06;96729.38;10386457;28;20418;-29
2023/06/25 11:50:26;;;;;;;3.70;3.30;;;;;;;21.19;57.23;96722.59;10382313;28;20541;-30
2023/06/25 11:55:26;;;;;;;5.90;3.63;;;;;;;21.20;57.08;96716.63;10387187;28;20116;-30
2023/06/25 12:00:26;;;;;;;5.83;3.97;;;;;;;21.19;57.11;96706.44;10380849;28;20413;-30
2023/06/25 12:05:27;;;;;;;4.00;3.33;;;;;;;21.18;57.33;96708.16;10387264;28;20036;-29
2023/06/25 12:10:27;;;;;;;5.80;3.80;;;;;;;21.44;57.16;96710.41;10382108;28;20390;-30
2023/06/25 12:15:28;;;;;;;7.70;4.10;;;;;;;21.49;57.00;96706.13;10394914;28;20037;-30
2023/06/25 12:20:28;;;;;;;6.80;4.70;;;;;;;21.39;56.77;96710.47;10377229;28;20396;-30
2023/06/25 12:25:29;;;;;;;8.13;5.43;;;;;;;21.28;56.87;96702.09;10389379;28;20048;-30
2023/06/25 12:30:29;;;;;;;9.27;5.75;;;;;;;21.24;57.13;96700.44;10364864;28;20026;-30
2023/06/25 12:35:29;;;;;;;6.70;4.60;;;;;;;21.20;57.02;96691.16;10353416;28;20030;-31
2023/06/25 12:40:30;;;;;;;7.03;4.83;;;;;;;21.21;57.28;96689.47;10377930;28;20026;-30
2023/06/25 12:45:30;;;;;;;5.30;4.10;;;;;;;21.20;57.08;96680.97;10381521;28;20033;-30
2023/06/25 12:50:30;;;;;;;6.17;4.90;;;;;;;21.20;57.27;96688.63;10368836;28;20028;-30
2023/06/25 12:55:31;;;;;;;6.27;4.40;;;;;;;21.40;57.29;96673.94;10354652;28;20046;-30
2023/06/25 13:00:31;;;;;;;5.75;4.22;;;;;;;21.53;57.06;96677.19;10370370;28;20299;-30
2023/06/25 13:05:32;;;;;;;6.07;4.53;;;;;;;21.46;57.13;96678.13;10386104;28;20046;-32
2023/06/25 13:10:32;;;;;;;6.55;4.10;;;;;;;21.35;56.95;96673.16;10372186;28;20029;-30
2023/06/25 13:15:35;;;;;;;4.93;4.07;;;;;;;21.30;56.90;96669.81;10375959;28;20048;-30
2023/06/25 13:20:35;;;;;;;5.03;3.78;;;;;;;21.26;57.01;96664.78;10374789;28;20088;-30
2023/06/25 13:25:37;;;;;;;5.67;4.10;;;;;;;21.24;57.20;96662.25;10367673;28;20096;-30
2023/06/25 13:30:38;;;;;;;5.53;4.18;;;;;;;21.24;57.17;96659.69;10373461;28;20030;-29
2023/06/25 13:35:38;;;;;;;5.75;3.92;;;;;;;21.24;57.06;96667.34;10359761;28;20042;-30
2023/06/25 13:40:39;;;;;;;5.20;4.10;;;;;;;21.37;57.63;96666.34;10396617;28;20520;-30
2023/06/25 13:45:40;;;;;;;5.10;4.23;;;;;;;21.54;57.27;96669.53;10371892;28;20044;-29
2023/06/25 13:50:41;;;;;;;4.43;3.63;;;;;;;21.48;56.87;96669.59;10383512;28;20700;-30
2023/06/25 13:55:41;;;;;;;3.63;3.20;;;;;;;21.38;56.94;96668.03;10390784;28;20037;-30
2023/06/25 14:00:41;;;;;;;3.30;3.00;;;;;;;21.35;57.36;96667.22;10387574;28;20679;-30
2023/06/25 14:05:42;;;;;;;5.07;3.50;;;;;;;21.32;57.31;96657.06;10390161;28;20053;-30
2023/06/25 14:10:42;;;;;;;5.57;3.47;;;;;;;21.29;57.23;96645.22;10345301;28;20046;-31
2023/06/25 14:15:42;;;;;;;5.25;3.40;;;;;;;21.42;58.89;96651.00;10349553;28;20030;-30
2023/06/25 14:20:43;;;;;;;4.90;3.60;;;;;;;21.39;59.95;96648.50;10398594;28;20503;-30
2023/06/25 14:25:43;;;;;;;5.50;3.28;;;;;;;21.56;59.42;96642.31;10402748;28;20363;-31
2023/06/25 14:30:44;;;;;;;7.73;3.70;;;;;;;21.67;58.77;96637.97;10372810;28;20034;-30
2023/06/25 14:35:44;;;;;;;16.10;5.13;;;;;;;21.63;58.55;96633.72;10339346;28;20027;-30
2023/06/25 14:40:44;;;;;;;13.60;4.83;;;;;;;21.48;58.52;96623.75;10334483;28;20030;-30
2023/06/25 14:45:45;;;;;;;9.43;3.57;;;;;;;21.51;58.73;96622.88;10338741;28;20038;-31
2023/06/25 14:50:45;;;;;;;13.87;4.17;;;;;;;21.45;58.75;96621.25;10381886;28;20122;-30
2023/06/25 14:55:45;;;;;;;15.00;4.60;;;;;;;21.58;59.25;96622.78;10384738;28;20919;-32
2023/06/25 15:00:46;;;;;;;7.17;3.10;;;;;;;21.69;58.58;96627.72;10377521;28;20363;-31
2023/06/25 15:05:46;;;;;;;9.57;4.13;;;;;;;21.57;58.44;96618.50;10397303;28;20052;-31
2023/06/25 15:10:49;;;;;;;11.30;4.23;;;;;;;21.48;58.23;96618.66;10374208;28;20026;-30
2023/06/25 15:15:49;;;;;;;7.15;3.63;;;;;;;21.44;58.32;96617.00;10397725;28;20474;-31
2023/06/25 15:20:51;;;;;;;10.77;4.13;;;;;;;21.41;58.42;96611.94;10378377;28;20037;-31
2023/06/25 15:25:52;;;;;;;10.57;3.88;;;;;;;21.41;59.33;96617.03;10371638;28;20419;-30
2023/06/25 15:30:54;;;;;;;9.70;3.50;;;;;;;21.66;58.79;96613.31;10352552;28;20045;-31
2023/06/25 15:35:54;;;;;;;5.50;2.92;;;;;;;21.56;58.10;96596.47;10378016;28;20045;-31
2023/06/25 15:40:56;;;;;;;9.27;3.53;;;;;;;21.49;58.18;96602.50;10404208;28;20424;-31
2023/06/25 15:45:56;;;;;;;8.70;4.10;;;;;;;21.47;58.54;96596.59;10383904;28;20523;-30
2023/06/25 15:50:57;;;;;;;8.65;3.38;;;;;;;21.41;58.49;96594.13;10395126;28;20041;-31
2023/06/25 15:55:59;;;;;;;7.70;4.17;;;;;;;21.41;58.48;96595.84;10393465;28;20039;-29
2023/06/25 16:00:59;;;;;;;7.38;4.15;;;;;;;21.56;58.90;96599.00;10402861;28;20038;-30
2023/06/25 16:06:00;;;;;;;10.20;5.17;;;;;;;21.71;58.39;96595.44;10406910;28;20037;-30
2023/06/25 16:11:00;;;;;;;30.13;6.73;;;;;;;21.57;59.42;96587.13;10386140;28;20026;-30
2023/06/25 16:16:00;;;;;;;10.70;5.07;;;;;;;21.48;59.85;96588.06;10401375;28;20033;-30
2023/06/25 16:21:01;;;;;;;13.33;5.30;;;;;;;21.46;59.71;96583.91;10372097;28;20490;-30
2023/06/25 16:26:01;;;;;;;9.73;5.13;;;;;;;21.40;60.17;96579.69;10369325;28;20289;-32
2023/06/25 16:31:02;;;;;;;11.30;5.47;;;;;;;21.50;59.66;96586.38;10361073;28;20121;-30
2023/06/25 16:36:02;;;;;;;7.07;4.63;;;;;;;21.64;59.72;96588.72;10345129;28;20038;-31
2023/06/25 16:41:02;;;;;;;11.75;4.43;;;;;;;21.78;60.19;96584.28;10343727;28;20045;-31
2023/06/25 16:46:03;;;;;;;11.27;4.93;;;;;;;21.68;59.80;96583.59;10356857;28;20037;-31
2023/06/25 16:51:03;;;;;;;9.07;4.60;;;;;;;21.55;60.01;96578.66;10373832;28;20389;-31
2023/06/25 16:56:03;;;;;;;11.07;4.40;;;;;;;21.48;59.88;96575.34;10384739;28;20570;-30
2023/06/25 17:01:04;;;;;;;12.60;5.17;;;;;;;21.45;59.52;96574.53;10388981;28;20550;-30
2023/06/25 17:06:04;;;;;;;6.13;4.00;;;;;;;21.56;60.59;96578.63;10349966;28;20048;-30
2023/06/25 17:11:05;;;;;;;10.65;4.55;;;;;;;21.73;60.55;96575.88;10375960;28;20030;-30
2023/06/25 17:16:05;;;;;;;7.00;4.03;;;;;;;21.72;59.54;96582.66;10380817;28;20046;-31
2023/06/25 17:21:06;;;;;;;4.93;3.77;;;;;;;21.58;59.72;96576.91;10354775;28;20042;-31
2023/06/25 17:26:07;;;;;;;6.57;3.80;;;;;;;21.50;59.88;96576.19;10381958;28;20412;-31
2023/06/25 17:31:07;;;;;;;11.57;4.68;;;;;;;21.47;59.99;96583.84;10367609;28;20045;-31
2023/06/25 17:36:08;;;;;;;7.60;3.90;;;;;;;21.45;59.79;96583.03;10374221;28;20063;-32
2023/06/25 17:41:08;;;;;;;4.95;3.42;;;;;;;21.44;59.97;96586.44;10391810;28;20588;-30
2023/06/25 17:46:08;;;;;;;7.97;4.10;;;;;;;21.64;60.21;96597.19;10390890;28;20045;-30
2023/06/25 17:51:09;;;;;;;5.17;3.60;;;;;;;21.75;59.50;96597.94;10361798;28;20030;-31
2023/06/25 17:56:11;;;;;;;4.70;3.80;;;;;;;21.62;59.50;96591.28;10335116;28;20038;-32
2023/06/25 18:01:12;;;;;;;9.10;4.53;;;;;;;21.51;59.63;96597.38;10334785;28;20042;-33
2023/06/25 18:06:12;;;;;;;7.00;3.35;;;;;;;21.51;59.78;96607.56;10359024;28;20406;-31
2023/06/25 18:11:21;;;;;;;5.90;3.40;;;;;;;21.48;59.61;96612.72;10383262;28;20026;-31
2023/06/25 18:16:21;;;;;;;4.30;3.53;;;;;;;21.45;59.95;96608.50;10363691;28;20026;-31
2023/06/25 18:21:22;;;;;;;7.85;4.07;;;;;;;21.44;59.81;96606.81;10341571;28;20047;-30
2023/06/25 18:26:22;;;;;;;5.83;3.93;;;;;;;21.66;60.05;96613.31;10369552;28;20045;-31
2023/06/25 18:31:23;;;;;;;7.10;3.60;;;;;;;21.75;59.40;96618.31;10370486;28;20071;-30
2023/06/25 18:36:23;;;;;;;4.70;3.47;;;;;;;21.64;59.31;96620.13;10338414;28;20045;-30
2023/06/25 18:41:23;;;;;;;5.83;3.20;;;;;;;21.53;59.64;96624.53;10331192;28;20027;-31
2023/06/25 18:46:24;;;;;;;4.30;3.15;;;;;;;21.47;59.81;96622.06;10349290;28;20038;-31
2023/06/25 18:51:26;;;;;;;4.07;2.83;;;;;;;21.43;59.49;96625.53;10345698;28;20049;-31
2023/06/25 18:56:26;;;;;;;4.90;3.42;;;;;;;21.44;59.61;96621.25;10356970;28;20509;-30
2023/06/25 19:01:27;;;;;;;3.72;2.88;;;;;;;21.41;59.73;96622.13;10397094;28;20121;-30
2023/06/25 19:06:28;;;;;;;6.03;3.50;;;;;;;21.64;59.99;96630.31;10401245;28;20040;-31
2023/06/25 19:11:29;;;;;;;6.43;3.33;;;;;;;21.76;59.44;96635.28;10384374;28;20104;-30
2023/06/25 19:16:29;;;;;;;4.53;3.30;;;;;;;21.65;59.35;96637.13;10390617;28;20095;-30
2023/06/25 19:21:29;;;;;;;3.87;3.03;;;;;;;21.54;59.41;96633.84;10365997;28;20129;-30
2023/06/25 19:26:29;;;;;;;3.67;3.33;;;;;;;21.47;59.36;96650.06;10405634;28;20125;-30
2023/06/25 19:31:31;;;;;;;4.47;2.90;;;;;;;21.44;60.06;96641.63;10403144;28;20056;-31
2023/06/25 19:36:32;;;;;;;3.50;2.83;;;;;;;21.42;59.58;96644.22;10397530;28;20045;-31
2023/06/25 19:41:32;;;;;;;5.80;3.10;;;;;;;21.40;59.49;96643.38;10400887;28;20428;-31
2023/06/25 19:46:33;;;;;;;4.00;3.17;;;;;;;21.55;60.17;96648.28;10388332;28;20464;-30
2023/06/25 19:51:33;;;;;;;4.13;3.00;;;;;;;21.75;60.04;96655.69;10375677;28;21391;-30
2023/06/25 19:56:34;;;;;;;4.33;2.97;;;;;;;21.71;59.20;96667.63;10376184;28;20044;-32
2023/06/25 20:01:34;;;;;;;3.70;2.70;;;;;;;21.59;59.15;96677.97;10399223;28;20300;-30
2023/06/25 20:06:37;;;;;;;3.63;2.87;;;;;;;21.50;59.30;96678.09;10380518;28;20033;-31
2023/06/25 20:11:37;;;;;;;3.65;3.00;;;;;;;21.44;59.29;96679.84;10400205;28;20536;-30
2023/06/25 20:16:38;;;;;;;3.23;2.63;;;;;;;21.42;59.37;96682.44;10375000;28;20129;-30
2023/06/25 20:21:38;;;;;;;3.47;2.58;;;;;;;21.42;59.44;96689.22;10369711;28;20041;-31
2023/06/25 20:26:39;;;;;;;6.77;3.03;;;;;;;21.49;61.01;96694.19;10375599;28;20037;-30
2023/06/25 20:31:39;;;;;;;8.17;3.17;;;;;;;21.68;60.57;96680.44;10338292;28;20037;-30
2023/06/25 20:36:39;;;;;;;4.00;2.77;;;;;;;21.81;59.92;96704.88;10359111;28;20037;-30
2023/06/25 20:41:41;;;;;;;7.70;3.00;;;;;;;21.69;59.72;96707.59;10361487;28;20643;-30
2023/06/25 20:46:42;;;;;;;3.58;2.67;;;;;;;21.56;59.34;96702.63;10322149;28;20462;-31
2023/06/25 20:51:43;;;;;;;4.30;2.60;;;;;;;21.51;59.45;96700.16;10357160;28;20038;-30
2023/06/25 20:56:43;;;;;;;4.90;2.53;;;;;;;21.48;59.51;96694.25;10344373;28;20026;-30
2023/06/25 21:01:43;;;;;;;3.27;2.70;;;;;;;21.44;59.51;96693.44;10355114;28;20032;-30
2023/06/25 21:06:44;;;;;;;4.23;3.17;;;;;;;21.43;59.59;96691.75;10368674;28;20600;-30
2023/06/25 21:11:44;;;;;;;4.20;2.93;;;;;;;21.55;59.59;96704.31;10334806;28;20773;-31
2023/06/25 21:16:45;;;;;;;3.57;3.27;;;;;;;21.76;59.29;96704.09;10335282;28;20293;-31
2023/06/25 21:21:45;;;;;;;3.75;3.22;;;;;;;21.74;58.75;96708.34;10339309;28;20048;-30
2023/06/25 21:26:45;;;;;;;3.33;2.70;;;;;;;21.62;59.13;96718.69;10325098;28;20040;-30
2023/06/25 21:31:46;;;;;;;3.83;3.20;;;;;;;21.54;59.08;96712.84;10350760;28;20049;-31
2023/06/25 21:36:46;;;;;;;3.60;3.30;;;;;;;21.49;59.01;96714.59;10335019;28;20717;-30
2023/06/25 21:41:46;;;;;;;4.17;3.23;;;;;;;21.46;58.89;96713.81;10340436;28;20162;-30
2023/06/25 21:46:47;;;;;;;3.30;3.00;;;;;;;21.44;58.87;96715.50;10326444;28;20042;-31
2023/06/25 21:51:53;;;;;;;4.43;2.40;;;;;;;21.42;58.98;96720.63;10337610;28;20030;-30
2023/06/25 21:56:54;;;;;;;3.72;3.30;;;;;;;21.61;58.24;96711.91;10342764;28;20125;-30
2023/06/25 22:01:54;;;;;;;4.88;3.00;;;;;;;21.75;57.84;96720.25;10350890;28;20498;-29
2023/06/25 22:06:57;;;;;;;3.47;3.17;;;;;;;21.68;58.13;96723.75;10334463;28;20041;-30
2023/06/25 22:11:58;;;;;;;5.28;3.42;;;;;;;21.57;58.05;96715.34;10334597;28;20031;-31
2023/06/25 22:16:58;;;;;;;3.05;2.72;;;;;;;21.50;58.49;96723.06;10345988;28;20108;-30
2023/06/25 22:21:59;;;;;;;5.63;3.03;;;;;;;21.45;58.52;96715.50;10337556;28;20038;-30
2023/06/25 22:26:59;;;;;;;4.72;3.55;;;;;;;21.43;58.56;96722.31;10332682;28;20042;-31
2023/06/25 22:32:00;;;;;;;3.27;2.63;;;;;;;21.42;58.48;96720.63;10330953;28;20091;-30
2023/06/25 22:37:00;;;;;;;4.23;3.30;;;;;;;21.43;58.05;96717.22;10346970;28;20049;-31
2023/06/25 22:42:00;;;;;;;4.53;4.13;;;;;;;21.65;56.12;96721.22;10335016;28;20034;-30
2023/06/25 22:47:01;;;;;;;5.00;3.83;;;;;;;21.73;55.96;96711.75;10349263;28;20565;-30
2023/06/25 22:52:01;;;;;;;3.50;3.20;;;;;;;21.64;56.68;96716.13;10351248;28;20023;-30
2023/06/25 22:57:02;;;;;;;4.13;3.70;;;;;;;21.54;57.50;96710.28;10365937;28;20483;-30
2023/06/25 23:02:03;;;;;;;5.32;4.13;;;;;;;21.47;57.71;96713.75;10364218;28;20038;-30
2023/06/25 23:07:05;;;;;;;11.32;3.80;;;;;;;21.44;57.75;96707.84;10374193;28;20042;-30
2023/06/25 23:12:08;;;;;;;4.25;3.75;;;;;;;21.42;57.71;96715.53;10332495;28;20034;-31
2023/06/25 23:17:09;;;;;;;4.40;3.92;;;;;;;21.43;57.58;96721.47;10345651;28;20042;-31